Farmington ASC

2021-01-22 06:30:00

  • imperial
Date Time Air Temperature Relative Humidity Dewpoint Windchill Heat Index Wind Speed Wind Dir. Rain Solar Radiation Soil Temperature
2m 2m 3m 3m 10cm
US/Mountain F % F F F MPH deg in MJ/m^2 F
max avg avg
2021-01-21 06:50:00 23.2 95.3 22.1 23.2 23.2 1.9 4.0 2.1 277.8 308.9 0.00 0.0000000 33.0
2021-01-21 06:55:00 23.5 92.9 21.7 23.5 23.5 1.3 2.4 1.5 15.1 332.2 0.00 0.0000000 32.9
2021-01-21 07:00:00 23.6 94.4 22.2 23.6 23.6 0.0 3.7 1.4 162.2 124.0 0.00 0.0000000 32.9
2021-01-21 07:05:00 23.4 86.3 19.9 16.4 23.4 5.5 5.5 2.6 171.3 145.9 0.00 0.0000000 32.9
2021-01-21 07:10:00 23.1 92.7 21.3 16.4 23.1 5.1 5.5 4.3 142.1 151.7 0.00 0.0010000 32.9
2021-01-21 07:15:00 22.2 91.6 20.1 15.8 22.2 4.7 5.8 4.6 184.8 168.3 0.00 0.0020000 32.9
2021-01-21 07:20:00 22.0 94.4 20.6 15.8 22.0 4.6 4.7 3.9 213.3 192.3 0.00 0.0030000 32.9
2021-01-21 07:25:00 21.8 91.4 19.7 21.8 21.8 1.3 4.6 2.4 320.0 232.2 0.00 0.0040000 32.9
2021-01-21 07:30:00 19.9 84.0 15.8 13.1 19.9 4.7 5.1 3.2 236.3 235.0 0.00 0.0070000 32.9
2021-01-21 07:35:00 17.5 96.6 16.7 17.5 17.5 2.4 5.3 4.4 205.1 224.1 0.00 0.0130000 32.9
2021-01-21 07:40:00 17.1 93.9 15.6 17.1 17.1 2.4 4.0 2.6 148.7 166.4 0.00 0.0180000 32.9
2021-01-21 07:45:00 16.6 89.6 14.1 16.6 16.6 1.9 3.1 1.7 245.4 215.5 0.00 0.0240000 32.9
2021-01-21 07:50:00 16.3 89.8 13.8 10.7 16.3 3.5 3.5 2.3 204.8 209.2 0.00 0.0320000 32.9
2021-01-21 07:55:00 16.0 92.8 14.3 8.3 16.0 4.9 5.1 3.9 197.0 205.8 0.00 0.0400000 32.9
2021-01-21 08:00:00 17.4 91.1 15.2 10.8 17.4 4.2 6.2 4.2 142.8 155.4 0.00 0.0500000 32.8
2021-01-21 08:05:00 18.0 92.5 16.2 12.6 18.0 3.5 4.6 3.9 135.5 136.4 0.00 0.0620000 32.8
2021-01-21 08:10:00 19.2 90.5 16.9 19.2 19.2 1.5 3.5 1.9 44.0 49.8 0.00 0.0740000 32.8
2021-01-21 08:15:00 21.1 91.1 18.9 21.1 21.1 0.8 1.7 0.8 20.3 81.6 0.00 0.0860000 32.8
2021-01-21 08:20:00 21.7 87.5 18.6 21.7 21.7 0.0 3.0 1.0 317.9 333.9 0.00 0.0990000 32.8
2021-01-21 08:25:00 22.6 83.9 18.5 22.6 22.6 1.7 2.1 0.8 151.4 177.0 0.00 0.1120000 32.8
2021-01-21 08:30:00 21.8 87.9 18.8 21.8 21.8 3.0 3.8 3.3 156.5 165.2 0.00 0.1260000 32.8
2021-01-21 08:35:00 23.0 86.0 19.5 23.0 23.0 2.2 2.8 1.9 134.5 141.2 0.00 0.1400000 32.8
2021-01-21 08:40:00 23.4 87.8 20.3 23.4 23.4 3.0 3.0 2.6 156.8 140.9 0.00 0.1550000 32.8
2021-01-21 08:45:00 24.4 85.2 20.6 24.4 24.4 0.8 2.8 2.1 24.7 139.4 0.00 0.1700000 32.8
2021-01-21 08:50:00 25.1 81.6 20.3 25.1 25.1 2.1 2.2 0.6 125.6 75.2 0.00 0.1840000 32.8
2021-01-21 08:55:00 26.2 81.1 21.2 26.2 26.2 2.4 3.3 2.2 103.3 112.1 0.00 0.1990000 32.8
2021-01-21 09:00:00 27.0 82.4 22.3 22.9 27.0 3.5 4.2 3.3 126.4 124.1 0.00 0.2150000 32.8
2021-01-21 09:05:00 28.1 80.0 22.7 28.1 28.1 2.2 4.0 2.4 12.2 78.6 0.00 0.2300000 32.8
2021-01-21 09:10:00 28.3 76.9 22.0 28.3 28.3 2.4 2.8 2.3 344.8 354.2 0.00 0.2450000 32.8
2021-01-21 09:15:00 28.3 76.9 22.0 28.3 28.3 0.0 2.2 1.7 301.7 326.9 0.00 0.2560000 32.8
2021-01-21 09:20:00 28.6 78.0 22.6 28.6 28.6 2.2 2.8 2.0 0.1 342.6 0.00 0.2720000 32.8
2021-01-21 09:25:00 29.2 76.5 22.7 25.2 29.2 3.7 3.7 2.2 346.6 328.8 0.00 0.2960000 32.8
2021-01-21 09:30:00 28.7 78.3 22.8 28.7 28.7 1.2 3.5 2.5 324.4 339.6 0.00 0.3010000 32.8
2021-01-21 09:35:00 29.2 79.3 23.6 29.2 29.2 0.0 2.6 1.4 126.0 31.6 0.00 0.1300000 32.7
2021-01-21 09:40:00 31.0 77.3 24.7 31.0 31.0 2.2 3.3 1.9 166.2 94.2 0.00 0.2640000 32.7
2021-01-21 09:45:00 32.1 76.0 25.4 32.1 32.1 3.0 5.5 3.8 158.2 107.9 0.00 0.2980000 32.7
2021-01-21 09:50:00 32.9 74.0 25.6 29.7 32.9 3.5 7.1 3.7 122.4 101.8 0.00 0.4580000 32.7
2021-01-21 09:55:00 34.4 70.4 25.8 30.3 34.4 4.6 5.8 3.7 123.7 101.1 0.00 0.5690000 32.7
2021-01-21 10:00:00 35.1 69.8 26.3 35.1 35.1 2.4 5.1 3.3 99.8 110.8 0.00 0.3090000 32.8
2021-01-21 10:05:00 35.4 67.8 25.8 32.7 35.4 3.3 5.6 3.2 78.7 86.4 0.00 0.2860000 32.8
2021-01-21 10:10:00 35.8 65.2 25.2 32.7 35.8 3.7 4.9 3.1 128.1 69.0 0.00 0.3680000 32.7
2021-01-21 10:15:00 36.7 64.6 25.9 33.6 36.7 3.8 4.6 2.7 19.3 58.0 0.00 0.4460000 32.7
2021-01-21 10:20:00 35.8 67.2 26.0 35.8 35.8 2.6 5.1 3.1 73.2 67.4 0.00 0.4550000 32.7
2021-01-21 10:25:00 34.6 70.2 25.9 34.6 34.6 1.2 4.7 3.5 40.7 48.6 0.00 0.4630000 32.8
2021-01-21 10:30:00 34.8 68.9 25.6 34.8 34.8 3.0 4.2 2.7 69.3 57.9 0.00 0.4720000 32.8
2021-01-21 10:35:00 34.0 70.7 25.5 34.0 34.0 1.2 4.6 2.9 9.8 46.3 0.00 0.4810000 32.8
2021-01-21 10:40:00 35.2 67.9 25.6 35.2 35.2 2.6 3.7 2.2 81.4 45.4 0.00 0.4930000 32.8
2021-01-21 10:45:00 35.2 67.3 25.4 35.2 35.2 2.8 4.0 2.6 37.2 36.9 0.00 0.5190000 32.8
2021-01-21 10:50:00 35.5 67.8 26.0 35.5 35.5 2.4 4.4 2.7 37.6 34.8 0.00 0.5780000 32.8
2021-01-21 10:55:00 36.7 66.9 26.7 36.7 36.7 1.9 4.6 2.9 349.0 69.0 0.00 0.6160000 32.8
2021-01-21 11:00:00 38.4 61.2 26.2 36.2 38.4 3.3 4.0 2.5 32.9 43.8 0.00 0.7400000 32.8
2021-01-21 11:05:00 38.1 64.4 27.1 38.1 38.1 3.0 4.7 2.6 92.8 80.4 0.00 0.3540000 32.8
2021-01-21 11:10:00 36.9 65.1 26.2 36.9 36.9 1.9 3.5 2.1 71.3 59.8 0.00 0.5110000 32.8
2021-01-21 11:15:00 37.2 63.9 26.2 33.9 37.2 4.2 5.5 2.4 225.2 9.9 0.00 0.6530000 32.8
2021-01-21 11:20:00 35.8 66.5 25.7 35.8 35.8 1.7 4.6 2.8 226.9 242.3 0.00 0.5880000 32.8
2021-01-21 11:25:00 38.9 60.6 26.5 38.9 38.9 2.8 3.3 1.8 195.3 218.4 0.00 0.8520000 32.8
2021-01-21 11:30:00 38.0 61.7 26.0 38.0 38.0 1.9 3.5 1.9 214.0 217.2 0.00 0.4580000 32.8
2021-01-21 11:35:00 36.0 64.1 25.1 33.2 36.0 3.5 5.5 3.8 172.7 166.2 0.00 0.4200000 32.8
2021-01-21 11:40:00 36.0 63.3 24.7 36.0 36.0 2.6 3.8 2.9 224.0 176.6 0.00 0.4200000 32.8
2021-01-21 11:45:00 35.3 68.1 25.8 35.3 35.3 3.0 3.5 2.8 274.8 238.5 0.00 0.4360000 32.8
2021-01-21 11:50:00 35.1 70.8 26.6 31.6 35.1 4.0 4.6 3.3 271.0 280.4 0.00 0.3940000 32.8
2021-01-21 11:55:00 35.3 70.9 26.8 35.3 35.3 2.6 4.0 2.7 4.7 347.3 0.00 0.3660000 32.8
2021-01-21 12:00:00 35.7 69.1 26.6 35.7 35.7 1.9 3.7 2.5 42.3 44.0 0.00 0.3510000 32.8
2021-01-21 12:05:00 36.6 67.5 26.8 36.6 36.6 1.7 2.4 1.6 73.0 75.8 0.00 0.3440000 32.8
2021-01-21 12:10:00 37.6 63.1 26.2 37.6 37.6 0.0 2.4 1.2 226.5 28.7 0.00 0.3480000 32.8
2021-01-21 12:15:00 38.0 62.1 26.2 38.0 38.0 1.3 2.1 0.9 222.3 192.8 0.00 0.3500000 32.9
2021-01-21 12:20:00 38.5 61.8 26.5 38.5 38.5 1.0 1.5 0.9 213.7 210.5 0.00 0.3520000 32.9
2021-01-21 12:25:00 38.0 63.4 26.6 38.0 38.0 2.6 3.3 2.1 298.8 208.1 0.00 0.3470000 32.9
2021-01-21 12:30:00 38.0 63.0 26.5 38.0 38.0 1.5 2.4 1.4 264.6 286.3 0.00 0.3420000 32.9
2021-01-21 12:35:00 37.2 65.3 26.7 37.2 37.2 0.0 2.6 1.6 275.9 278.0 0.00 0.3770000 32.9
2021-01-21 12:40:00 38.2 63.1 26.8 38.2 38.2 2.1 3.1 1.4 130.1 150.8 0.00 0.3490000 32.9
2021-01-21 12:45:00 38.8 61.5 26.7 38.8 38.8 1.5 2.4 1.0 253.3 273.7 0.00 0.3470000 32.9
2021-01-21 12:50:00 37.5 63.8 26.3 37.5 37.5 1.5 3.1 2.2 317.6 320.7 0.00 0.3470000 32.9
2021-01-21 12:55:00 37.2 67.1 27.3 34.6 37.2 3.5 4.7 2.2 321.6 341.2 0.00 0.3620000 32.9
2021-01-21 13:00:00 35.9 69.5 26.9 33.5 35.9 3.1 4.6 3.3 313.5 325.0 0.00 0.3620000 32.9
2021-01-21 13:05:00 35.9 69.7 27.0 35.9 35.9 2.2 2.8 2.2 223.3 272.1 0.00 0.3520000 32.9
2021-01-21 13:10:00 36.4 69.0 27.2 36.4 36.4 2.6 3.3 1.8 278.1 244.7 0.00 0.4080000 32.9
2021-01-21 13:15:00 36.6 68.5 27.2 36.6 36.6 2.8 3.5 2.3 257.0 301.9 0.00 0.3890000 32.9
2021-01-21 13:20:00 37.1 68.5 27.7 37.1 37.1 2.1 3.0 2.2 150.3 298.4 0.00 0.3390000 32.9
2021-01-21 13:25:00 38.3 64.5 27.4 34.3 38.3 5.3 5.3 2.2 0.5 270.3 0.00 0.4020000 32.9
2021-01-21 13:30:00 36.5 69.2 27.4 36.5 36.5 2.2 5.3 3.7 320.4 348.1 0.00 0.3130000 33.0
2021-01-21 13:35:00 37.5 67.1 27.6 37.5 37.5 2.6 4.7 2.8 346.2 340.9 0.00 0.5770000 33.0
2021-01-21 13:40:00 36.7 67.4 27.0 32.3 36.7 5.5 6.0 2.9 337.2 352.2 0.00 0.5240000 33.0
2021-01-21 13:45:00 36.4 67.1 26.5 36.4 36.4 3.0 4.7 2.7 348.3 354.9 0.00 0.5290000 33.0
2021-01-21 13:50:00 37.1 67.2 27.2 37.1 37.1 0.0 3.8 1.9 73.0 12.0 0.00 0.5240000 33.0
2021-01-21 13:55:00 39.2 62.9 27.6 39.2 39.2 1.3 2.8 1.0 62.1 75.8 0.00 0.5140000 33.0
2021-01-21 14:00:00 39.1 62.3 27.3 39.1 39.1 0.0 1.9 0.4 191.3 358.5 0.00 0.5030000 33.0
2021-01-21 14:05:00 40.0 60.2 27.3 40.0 40.0 0.0 3.0 0.7 327.5 342.6 0.00 0.4940000 33.0
2021-01-21 14:10:00 39.9 59.7 27.0 38.1 39.9 3.1 3.1 1.3 320.2 338.0 0.00 0.4830000 33.1
2021-01-21 14:15:00 40.4 59.2 27.2 40.4 40.4 2.1 3.1 0.6 237.9 283.1 0.00 0.4740000 33.1
2021-01-21 14:20:00 40.2 59.1 27.1 40.2 40.2 0.0 2.6 0.8 326.0 239.5 0.00 0.4660000 33.1
2021-01-21 14:25:00 42.7 53.8 27.1 42.7 42.7 0.0 0.0 0.0 246.5 0.0 0.00 0.4590000 33.1
2021-01-21 14:30:00 43.0 55.2 28.0 43.0 43.0 0.0 0.0 0.0 161.0 0.0 0.00 0.4480000 33.2
2021-01-21 14:35:00 44.4 51.4 27.6 44.4 44.4 0.0 1.0 0.0 168.4 164.6 0.00 0.4370000 33.2
2021-01-21 14:40:00 45.2 49.9 27.6 45.2 45.2 0.0 0.0 0.0 198.2 0.0 0.00 0.4270000 33.2
2021-01-21 14:45:00 46.5 49.6 28.7 46.5 46.5 0.0 0.0 0.0 179.6 0.0 0.00 0.4160000 33.2
2021-01-21 14:50:00 43.9 54.1 28.4 43.9 43.9 0.0 1.7 0.7 194.2 179.6 0.00 0.4050000 33.3
2021-01-21 14:55:00 43.8 54.5 28.5 43.8 43.8 0.0 0.0 0.0 167.3 0.0 0.00 0.3930000 33.3
2021-01-21 15:00:00 43.3 56.4 28.8 43.3 43.3 2.1 2.2 0.5 269.5 261.4 0.00 0.3840000 33.3
2021-01-21 15:05:00 40.4 62.3 28.5 40.4 40.4 2.6 3.5 2.6 234.2 257.2 0.00 0.3690000 33.3
2021-01-21 15:10:00 39.2 63.9 28.0 36.9 39.2 3.5 5.5 3.2 256.6 263.7 0.00 0.3580000 33.4
2021-01-21 15:15:00 38.5 64.6 27.6 36.5 38.5 3.1 4.4 3.6 261.6 263.7 0.00 0.3460000 33.4
2021-01-21 15:20:00 38.9 64.2 27.9 38.9 38.9 3.0 3.3 2.2 244.2 252.1 0.00 0.3330000 33.4
2021-01-21 15:25:00 38.4 65.5 27.9 38.4 38.4 2.4 3.8 2.9 259.3 253.9 0.00 0.3210000 33.4
2021-01-21 15:30:00 38.7 63.9 27.5 36.5 38.7 3.3 4.0 3.2 283.0 262.2 0.00 0.3100000 33.5
2021-01-21 15:35:00 39.4 61.0 27.1 39.4 39.4 0.0 4.6 2.0 263.6 296.0 0.00 0.2970000 33.5
2021-01-21 15:40:00 39.7 60.2 27.0 37.6 39.7 3.3 4.7 2.7 303.3 284.0 0.00 0.2830000 33.5
2021-01-21 15:45:00 39.7 61.6 27.6 39.7 39.7 2.1 3.7 2.0 287.1 280.1 0.00 0.2690000 33.5
2021-01-21 15:50:00 39.5 63.5 28.2 39.5 39.5 2.8 3.5 2.2 271.5 261.9 0.00 0.2560000 33.5
2021-01-21 15:55:00 39.8 62.5 28.0 39.8 39.8 1.7 3.3 2.0 0.2 266.8 0.00 0.2410000 33.6
2021-01-21 16:00:00 40.0 62.2 28.1 40.0 40.0 1.0 2.1 1.0 269.1 303.0 0.00 0.2290000 33.6
2021-01-21 16:05:00 39.1 64.1 27.9 39.1 39.1 2.1 3.3 2.4 265.5 255.7 0.00 0.2150000 33.6
2021-01-21 16:10:00 38.7 64.8 27.9 38.7 38.7 1.5 3.5 2.7 254.8 262.8 0.00 0.2000000 33.6
2021-01-21 16:15:00 38.6 65.8 28.2 38.6 38.6 2.8 3.0 2.3 257.9 254.9 0.00 0.1870000 33.6
2021-01-21 16:20:00 38.6 64.7 27.7 38.6 38.6 1.5 3.0 2.2 246.6 254.5 0.00 0.1730000 33.7
2021-01-21 16:25:00 38.6 64.5 27.7 38.6 38.6 0.8 2.2 1.6 261.3 248.2 0.00 0.1600000 33.7
2021-01-21 16:30:00 38.9 64.6 28.0 38.9 38.9 0.0 1.0 0.1 251.3 272.6 0.00 0.1450000 33.7
2021-01-21 16:35:00 38.6 64.9 27.8 38.6 38.6 2.4 2.4 1.8 249.8 247.3 0.00 0.1310000 33.7
2021-01-21 16:40:00 38.2 64.9 27.4 38.2 38.2 2.4 2.4 1.8 256.4 247.7 0.00 0.1150000 33.7
2021-01-21 16:45:00 38.1 65.6 27.6 38.1 38.1 0.8 2.6 1.7 251.3 249.8 0.00 0.0980000 33.7
2021-01-21 16:50:00 38.2 65.3 27.5 38.2 38.2 0.0 1.3 0.5 221.6 253.6 0.00 0.0800000 33.8
2021-01-21 16:55:00 37.5 65.7 27.1 37.5 37.5 0.0 0.0 0.0 232.7 0.0 0.00 0.0640000 33.8
2021-01-21 17:00:00 37.4 65.9 27.0 37.4 37.4 0.0 0.0 0.0 256.5 0.0 0.00 0.0500000 33.8
2021-01-21 17:05:00 37.0 67.7 27.3 37.0 37.0 2.4 2.4 0.3 259.0 259.0 0.00 0.0370000 33.8
2021-01-21 17:10:00 35.8 70.4 27.1 35.8 35.8 1.9 2.8 2.3 274.2 266.5 0.00 0.0260000 33.8
2021-01-21 17:15:00 35.2 72.0 27.0 35.2 35.2 1.0 2.1 1.4 252.0 259.7 0.00 0.0110000 33.8
2021-01-21 17:20:00 34.2 72.9 26.4 34.2 34.2 0.0 0.8 0.0 236.7 250.4 0.00 0.0070000 33.8
2021-01-21 17:25:00 33.3 76.9 26.8 33.3 33.3 0.0 0.0 0.0 214.8 0.0 0.00 0.0050000 33.8
2021-01-21 17:30:00 32.5 79.1 26.8 32.5 32.5 0.0 0.0 0.0 214.6 0.0 0.00 0.0040000 33.8
2021-01-21 17:35:00 31.6 82.3 26.8 31.6 31.6 2.6 2.6 0.7 163.6 160.1 0.00 0.0020000 33.8
2021-01-21 17:40:00 30.5 85.1 26.6 30.5 30.5 2.4 2.8 2.4 160.1 159.8 0.00 0.0010000 33.8
2021-01-21 17:45:00 30.3 85.3 26.4 30.3 30.3 2.1 2.8 2.5 149.5 159.5 0.00 0.0010000 33.8
2021-01-21 17:50:00 29.6 87.8 26.4 29.6 29.6 2.6 2.6 2.3 135.3 143.6 0.00 0.0000000 33.8
2021-01-21 17:55:00 29.9 87.2 26.5 29.9 29.9 3.0 3.0 2.7 143.5 145.5 0.00 0.0000000 33.8
2021-01-21 18:00:00 29.8 87.4 26.5 29.8 29.8 2.8 3.3 3.0 122.5 127.4 0.00 0.0000000 33.8
2021-01-21 18:05:00 29.5 87.4 26.2 26.0 29.5 3.3 4.0 3.2 114.6 114.3 0.00 0.0000000 33.8
2021-01-21 18:10:00 28.9 88.2 25.8 28.9 28.9 1.9 3.5 2.3 102.5 110.0 0.00 0.0000000 33.8
2021-01-21 18:15:00 28.7 89.7 26.1 28.7 28.7 2.6 2.8 2.2 109.8 106.3 0.00 0.0000000 33.8
2021-01-21 18:20:00 28.6 89.7 26.0 28.6 28.6 2.1 3.0 2.3 87.3 92.5 0.00 0.0000000 33.8
2021-01-21 18:25:00 27.8 89.8 25.2 27.8 27.8 1.5 2.2 1.8 74.2 81.7 0.00 0.0000000 33.8
2021-01-21 18:30:00 27.6 91.7 25.5 27.6 27.6 1.9 3.0 2.2 101.6 97.0 0.00 0.0000000 33.8
2021-01-21 18:35:00 27.6 90.6 25.2 27.6 27.6 1.9 3.1 2.4 102.5 100.1 0.00 0.0000000 33.8
2021-01-21 18:40:00 27.2 92.2 25.2 27.2 27.2 2.1 2.6 1.9 131.4 100.1 0.00 0.0000000 33.8
2021-01-21 18:45:00 27.9 94.7 26.5 22.7 27.9 4.6 4.7 3.4 99.0 113.4 0.00 0.0000000 33.8
2021-01-21 18:50:00 28.7 93.8 27.2 28.7 28.7 2.6 4.7 3.4 106.0 111.0 0.00 0.0000000 33.8
2021-01-21 18:55:00 29.0 93.6 27.4 29.0 29.0 2.2 3.3 2.3 91.5 101.4 0.00 0.0000000 33.8
2021-01-21 19:00:00 29.2 93.0 27.4 29.2 29.2 1.0 3.0 1.9 83.5 74.5 0.00 0.0000000 33.8
2021-01-21 19:05:00 29.7 93.8 28.1 25.5 29.7 3.8 3.8 2.1 115.6 102.9 0.00 0.0000000 33.8
2021-01-21 19:10:00 30.4 91.1 28.1 26.8 30.4 3.5 5.1 4.5 162.9 145.6 0.00 0.0000000 33.8
2021-01-21 19:15:00 30.6 90.3 28.1 30.6 30.6 0.0 4.2 1.9 238.5 166.7 0.00 0.0000000 33.8
2021-01-21 19:20:00 30.5 90.3 28.0 30.5 30.5 0.0 1.7 0.5 291.1 288.5 0.00 0.0000000 33.8
2021-01-21 19:25:00 30.6 90.5 28.1 30.6 30.6 1.9 1.9 0.2 147.9 149.1 0.00 0.0000000 33.8
2021-01-21 19:30:00 30.2 91.0 27.9 30.2 30.2 0.0 2.1 1.6 78.3 127.9 0.00 0.0000000 33.8
2021-01-21 19:35:00 30.0 90.8 27.6 30.0 30.0 0.0 0.8 0.1 99.9 61.7 0.00 0.0000000 33.8
2021-01-21 19:40:00 29.9 92.2 27.9 26.0 29.9 3.7 4.6 3.2 113.6 111.7 0.00 0.0000000 33.8
2021-01-21 19:45:00 30.0 92.2 28.0 25.9 30.0 3.8 4.2 3.7 134.5 124.9 0.00 0.0000000 33.8
2021-01-21 19:50:00 30.6 91.1 28.3 26.0 30.6 4.4 5.1 3.6 140.6 133.1 0.00 0.0000000 33.8
2021-01-21 19:55:00 30.9 89.1 28.0 27.1 30.9 3.7 4.9 4.4 130.6 138.2 0.00 0.0000000 33.8
2021-01-21 20:00:00 31.1 88.9 28.2 31.1 31.1 2.6 3.5 2.9 112.6 126.2 0.00 0.0000000 33.8
2021-01-21 20:05:00 30.8 88.7 27.8 30.8 30.8 2.6 3.1 2.2 100.2 107.6 0.00 0.0000000 33.8
2021-01-21 20:10:00 30.5 88.3 27.4 30.5 30.5 1.7 3.1 2.4 108.8 102.1 0.00 0.0000000 33.8
2021-01-21 20:15:00 29.7 89.4 27.0 25.4 29.7 4.0 4.7 3.5 124.2 116.7 0.00 0.0000000 33.8
2021-01-21 20:20:00 29.4 90.2 26.9 24.6 29.4 4.4 5.1 4.0 119.6 115.8 0.00 0.0000000 33.8
2021-01-21 20:25:00 29.0 89.6 26.4 24.8 29.0 3.8 4.7 3.7 115.6 104.2 0.00 0.0000000 33.8
2021-01-21 20:30:00 28.7 90.5 26.2 25.1 28.7 3.3 5.5 4.6 97.5 113.3 0.00 0.0000000 33.8
2021-01-21 20:35:00 28.2 90.1 25.6 28.2 28.2 1.3 3.1 2.1 56.8 78.2 0.00 0.0000000 33.8
2021-01-21 20:40:00 27.8 91.5 25.7 27.8 27.8 0.0 1.5 0.2 52.4 66.8 0.00 0.0000000 33.8
2021-01-21 20:45:00 28.2 94.0 26.7 28.2 28.2 0.0 0.0 0.0 60.6 0.0 0.00 0.0000000 33.7
2021-01-21 20:50:00 28.7 93.1 26.9 28.7 28.7 0.0 0.0 0.0 63.0 0.0 0.00 0.0000000 33.7
2021-01-21 20:55:00 28.6 90.0 26.0 28.6 28.6 2.6 3.0 0.6 78.6 70.6 0.00 0.0000000 33.7
2021-01-21 21:00:00 27.9 90.8 25.5 27.9 27.9 2.4 3.3 2.7 75.2 71.1 0.00 0.0000000 33.8
2021-01-21 21:05:00 27.7 91.3 25.5 27.7 27.7 2.2 3.1 2.2 70.0 72.8 0.00 0.0000000 33.7
2021-01-21 21:10:00 27.9 91.5 25.7 27.9 27.9 1.3 3.0 1.9 54.4 52.3 0.00 0.0000000 33.7
2021-01-21 21:15:00 27.9 91.0 25.6 27.9 27.9 1.7 1.9 1.3 53.6 68.7 0.00 0.0000000 33.7
2021-01-21 21:20:00 28.1 92.1 26.1 28.1 28.1 1.7 2.4 1.9 48.1 46.7 0.00 0.0000000 33.7
2021-01-21 21:25:00 28.4 92.1 26.4 28.4 28.4 1.7 2.6 1.9 47.9 52.6 0.00 0.0000000 33.7
2021-01-21 21:30:00 28.5 91.8 26.4 28.5 28.5 1.7 2.2 1.6 100.4 78.6 0.00 0.0000000 33.7
2021-01-21 21:35:00 29.2 91.3 26.9 29.2 29.2 1.7 2.6 2.1 63.5 94.5 0.00 0.0000000 33.7
2021-01-21 21:40:00 28.9 92.0 26.9 28.9 28.9 2.6 2.6 2.1 65.9 66.5 0.00 0.0000000 33.7
2021-01-21 21:45:00 29.2 92.5 27.3 29.2 29.2 1.3 2.4 1.9 50.8 58.9 0.00 0.0000000 33.7
2021-01-21 21:50:00 29.4 92.1 27.4 29.4 29.4 1.9 1.9 1.4 58.7 52.1 0.00 0.0000000 33.7
2021-01-21 21:55:00 29.6 91.3 27.4 29.6 29.6 1.3 1.9 1.6 24.2 38.3 0.00 0.0000000 33.7
2021-01-21 22:00:00 29.9 90.2 27.4 29.9 29.9 1.5 3.0 1.8 64.5 34.4 0.00 0.0000000 33.7
2021-01-21 22:05:00 29.9 89.3 27.1 29.9 29.9 1.2 2.2 1.4 84.1 57.4 0.00 0.0000000 33.7
2021-01-21 22:10:00 29.8 89.6 27.1 29.8 29.8 1.9 2.6 2.0 104.9 70.8 0.00 0.0000000 33.7
2021-01-21 22:15:00 29.8 90.3 27.3 29.8 29.8 2.1 2.1 1.7 94.4 74.2 0.00 0.0000000 33.6
2021-01-21 22:20:00 30.0 90.3 27.5 30.0 30.0 1.2 2.4 1.8 96.8 102.9 0.00 0.0000000 33.6
2021-01-21 22:25:00 30.0 89.7 27.4 30.0 30.0 2.1 2.1 0.6 91.2 86.7 0.00 0.0000000 33.6
2021-01-21 22:30:00 30.2 89.8 27.6 30.2 30.2 1.3 1.7 1.1 48.3 69.7 0.00 0.0000000 33.6
2021-01-21 22:35:00 30.1 89.7 27.4 30.1 30.1 2.1 2.4 1.6 61.8 71.0 0.00 0.0000000 33.6
2021-01-21 22:40:00 30.5 88.8 27.6 30.5 30.5 1.9 2.6 1.9 68.0 56.4 0.00 0.0000000 33.6
2021-01-21 22:45:00 30.5 87.6 27.3 30.5 30.5 1.7 2.8 2.1 73.7 65.5 0.00 0.0000000 33.6
2021-01-21 22:50:00 30.6 87.7 27.4 30.6 30.6 2.4 2.4 1.1 6.6 43.3 0.00 0.0000000 33.6
2021-01-21 22:55:00 30.5 87.6 27.2 30.5 30.5 1.5 2.8 2.1 62.4 26.2 0.00 0.0000000 33.6
2021-01-21 23:00:00 30.4 87.5 27.1 30.4 30.4 1.5 2.2 1.5 57.3 60.5 0.00 0.0000000 33.6
2021-01-21 23:05:00 29.7 87.6 26.4 29.7 29.7 1.2 2.2 1.0 261.3 238.5 0.00 0.0000000 33.6
2021-01-21 23:10:00 29.1 88.6 26.2 29.1 29.1 1.2 2.8 2.1 61.3 309.4 0.00 0.0000000 33.5
2021-01-21 23:15:00 29.0 90.7 26.7 29.0 29.0 0.0 1.9 0.5 114.9 18.4 0.00 0.0000000 33.5
2021-01-21 23:20:00 29.2 89.7 26.6 29.2 29.2 0.0 2.1 1.1 319.6 334.3 0.00 0.0000000 33.5
2021-01-21 23:25:00 28.9 90.1 26.3 25.5 28.9 3.1 3.1 0.8 252.2 262.3 0.00 0.0000000 33.5
2021-01-21 23:30:00 27.7 92.0 25.7 27.7 27.7 0.0 3.7 2.6 87.9 209.7 0.00 0.0000000 33.5
2021-01-21 23:35:00 27.4 93.3 25.7 27.4 27.4 1.7 2.4 1.0 182.1 186.2 0.00 0.0000000 33.5
2021-01-21 23:40:00 27.3 95.5 26.2 27.3 27.3 2.6 3.5 2.9 133.2 151.9 0.00 0.0000000 33.5
2021-01-21 23:45:00 27.4 95.9 26.4 22.5 27.4 4.2 4.2 3.3 115.3 129.5 0.00 0.0000000 33.5
2021-01-21 23:50:00 27.7 95.7 26.6 27.7 27.7 2.2 4.4 2.7 107.2 100.6 0.00 0.0000000 33.5
2021-01-21 23:55:00 28.1 95.5 26.9 28.1 28.1 1.5 2.2 1.9 132.4 99.4 0.00 0.0000000 33.5
2021-01-22 00:00:00 28.3 95.1 27.1 28.3 28.3 1.5 2.4 1.7 113.4 110.4 0.00 0.0000000 33.5
2021-01-22 00:05:00 28.7 94.7 27.3 28.7 28.7 1.9 2.2 1.8 104.3 105.9 0.00 0.0000000 33.5
2021-01-22 00:10:00 28.5 94.5 27.1 28.5 28.5 3.0 3.0 2.1 118.5 107.0 0.00 0.0000000 33.4
2021-01-22 00:15:00 28.7 94.6 27.3 28.7 28.7 1.7 3.7 2.7 92.7 107.0 0.00 0.0000000 33.4
2021-01-22 00:20:00 28.7 94.5 27.3 28.7 28.7 2.4 2.8 2.0 100.7 65.8 0.00 0.0000000 33.4
2021-01-22 00:25:00 29.0 94.2 27.5 29.0 29.0 2.2 2.4 1.8 113.3 91.7 0.00 0.0000000 33.4
2021-01-22 00:30:00 28.9 94.0 27.4 28.9 28.9 2.8 2.8 1.5 119.5 100.8 0.00 0.0000000 33.4
2021-01-22 00:35:00 29.2 94.0 27.6 24.7 29.2 4.0 4.7 4.1 122.2 122.3 0.00 0.0000000 33.4
2021-01-22 00:40:00 29.3 93.6 27.7 29.3 29.3 1.3 4.0 2.3 59.7 90.3 0.00 0.0000000 33.4
2021-01-22 00:45:00 29.4 94.0 27.9 29.4 29.4 2.2 3.1 1.9 69.8 50.3 0.00 0.0000000 33.4
2021-01-22 00:50:00 29.8 93.4 28.1 29.8 29.8 1.3 2.2 1.7 80.3 49.8 0.00 0.0000000 33.4
2021-01-22 00:55:00 30.1 91.3 27.9 30.1 30.1 2.4 3.3 2.6 116.0 122.6 0.00 0.0000000 33.4
2021-01-22 01:00:00 30.1 91.7 28.0 26.5 30.1 3.5 4.4 3.2 128.8 107.9 0.00 0.0000000 33.4
2021-01-22 01:05:00 30.1 91.4 27.9 30.1 30.1 2.2 3.8 2.5 25.7 21.9 0.00 0.0000000 33.4
2021-01-22 01:10:00 30.6 90.6 28.1 30.6 30.6 0.8 2.2 1.6 44.7 77.8 0.00 0.0000000 33.3
2021-01-22 01:15:00 30.6 90.0 28.0 30.6 30.6 1.9 2.4 1.6 45.6 30.5 0.00 0.0000000 33.3
2021-01-22 01:20:00 30.9 89.7 28.2 30.9 30.9 3.0 3.0 2.1 348.8 33.2 0.00 0.0000000 33.3
2021-01-22 01:25:00 30.9 89.1 28.0 30.9 30.9 1.3 6.3 3.5 62.5 28.5 0.00 0.0000000 33.3
2021-01-22 01:30:00 30.5 89.9 27.8 30.5 30.5 2.4 3.5 2.3 57.8 60.8 0.00 0.0000000 33.3
2021-01-22 01:35:00 30.3 91.3 28.0 30.3 30.3 2.6 3.1 2.4 125.1 88.2 0.00 0.0000000 33.3
2021-01-22 01:40:00 30.3 91.3 28.1 25.9 30.3 4.2 4.2 2.4 0.8 51.1 0.00 0.0000000 33.3
2021-01-22 01:45:00 30.7 90.3 28.2 30.7 30.7 2.8 4.0 2.4 47.1 35.3 0.00 0.0000000 33.3
2021-01-22 01:50:00 30.8 90.2 28.2 30.8 30.8 2.8 3.8 2.3 19.6 49.3 0.00 0.0000000 33.3
2021-01-22 01:55:00 30.9 89.6 28.2 30.9 30.9 2.2 3.5 2.2 113.5 54.7 0.00 0.0000000 33.3
2021-01-22 02:00:00 30.8 89.7 28.1 30.8 30.8 2.1 3.0 1.8 35.5 52.4 0.00 0.0000000 33.3
2021-01-22 02:05:00 30.9 90.2 28.4 30.9 30.9 1.7 3.1 1.3 35.4 61.1 0.00 0.0000000 33.3
2021-01-22 02:10:00 31.1 89.7 28.4 31.1 31.1 1.7 2.8 1.6 46.0 48.0 0.00 0.0000000 33.3
2021-01-22 02:15:00 31.3 89.6 28.6 31.3 31.3 1.2 2.2 1.7 70.1 89.4 0.00 0.0000000 33.3
2021-01-22 02:20:00 31.4 89.3 28.6 31.4 31.4 1.3 2.4 1.4 89.1 75.6 0.00 0.0000000 33.3
2021-01-22 02:25:00 31.5 89.2 28.7 31.5 31.5 2.4 3.3 2.2 93.6 45.5 0.00 0.0000000 33.3
2021-01-22 02:30:00 31.5 88.8 28.6 28.1 31.5 3.5 4.6 3.2 37.8 55.5 0.00 0.0000000 33.3
2021-01-22 02:35:00 31.4 88.7 28.5 31.4 31.4 2.4 4.6 3.0 51.7 48.2 0.00 0.0000000 33.3
2021-01-22 02:40:00 31.5 88.3 28.4 31.5 31.5 3.0 4.7 3.2 85.6 75.2 0.00 0.0000000 33.3
2021-01-22 02:45:00 31.7 87.9 28.5 31.7 31.7 1.2 4.4 2.7 326.4 73.8 0.00 0.0000000 33.3
2021-01-22 02:50:00 31.5 87.6 28.2 26.7 31.5 4.7 4.7 3.0 125.0 78.1 0.00 0.0000000 33.3
2021-01-22 02:55:00 31.6 87.2 28.2 31.6 31.6 2.1 4.9 3.3 20.8 81.8 0.00 0.0000000 33.3
2021-01-22 03:00:00 31.6 87.0 28.2 31.6 31.6 2.6 5.3 3.4 47.3 74.0 0.00 0.0000000 33.3
2021-01-22 03:05:00 31.7 86.7 28.2 31.7 31.7 0.0 3.7 2.0 117.4 83.4 0.00 0.0000000 33.3
2021-01-22 03:10:00 32.0 86.8 28.5 32.0 32.0 0.0 1.7 0.5 29.3 84.8 0.00 0.0000000 33.3
2021-01-22 03:15:00 31.8 86.5 28.3 31.8 31.8 2.6 4.4 2.3 47.9 49.3 0.00 0.0000000 33.3
2021-01-22 03:20:00 31.9 87.0 28.5 31.9 31.9 2.6 5.1 2.6 65.0 64.3 0.00 0.0000000 33.3
2021-01-22 03:25:00 31.8 87.0 28.4 31.8 31.8 1.5 4.2 2.7 43.8 90.4 0.00 0.0000000 33.2
2021-01-22 03:30:00 31.7 86.9 28.3 31.7 31.7 2.6 3.7 2.5 52.5 63.2 0.00 0.0000000 33.3
2021-01-22 03:35:00 31.5 87.4 28.2 28.1 31.5 3.5 3.8 3.1 65.3 68.2 0.00 0.0000000 33.2
2021-01-22 03:40:00 31.6 87.6 28.3 28.0 31.6 3.7 4.9 3.4 53.5 77.9 0.00 0.0000000 33.2
2021-01-22 03:45:00 31.5 87.8 28.3 28.1 31.5 3.5 4.7 3.2 154.8 52.3 0.00 0.0000000 33.3
2021-01-22 03:50:00 31.4 87.4 28.0 31.4 31.4 1.5 4.6 3.3 63.8 69.0 0.00 0.0000000 33.2
2021-01-22 03:55:00 31.4 87.2 28.0 28.1 31.4 3.3 5.5 3.3 141.4 59.1 0.00 0.0000000 33.2
2021-01-22 04:00:00 31.4 87.0 28.0 31.4 31.4 1.7 6.5 3.7 41.6 52.7 0.00 0.0000000 33.3
2021-01-22 04:05:00 31.5 87.1 28.1 31.5 31.5 2.8 5.3 3.2 79.6 70.4 0.00 0.0000000 33.3
2021-01-22 04:10:00 31.4 87.0 27.9 27.9 31.4 3.5 5.8 3.9 31.6 71.6 0.00 0.0000000 33.3
2021-01-22 04:15:00 31.4 87.0 27.9 31.4 31.4 2.8 5.6 3.4 11.1 70.7 0.00 0.0000000 33.2
2021-01-22 04:20:00 31.4 86.8 27.9 27.7 31.4 3.7 5.8 3.3 51.9 51.3 0.00 0.0000000 33.2
2021-01-22 04:25:00 31.4 87.1 28.0 26.9 31.4 4.4 5.6 3.2 59.8 55.6 0.00 0.0000000 33.3
2021-01-22 04:30:00 31.2 87.4 27.9 26.4 31.2 4.7 6.5 3.5 41.8 77.4 0.00 0.0000000 33.2
2021-01-22 04:35:00 31.4 87.0 27.9 26.9 31.4 4.4 6.9 4.4 64.9 82.3 0.00 0.0000000 33.2
2021-01-22 04:40:00 31.4 87.1 28.0 26.6 31.4 4.7 6.9 3.7 97.3 75.4 0.00 0.0000000 33.2
2021-01-22 04:45:00 31.3 87.3 28.0 27.8 31.3 3.5 5.6 3.4 55.5 70.8 0.00 0.0000000 33.2
2021-01-22 04:50:00 31.4 87.4 28.0 31.4 31.4 2.4 6.2 3.4 83.2 67.0 0.00 0.0000000 33.2
2021-01-22 04:55:00 31.4 87.7 28.2 28.0 31.4 3.5 5.8 3.4 80.7 97.2 0.00 0.0000000 33.2
2021-01-22 05:00:00 31.2 87.7 28.0 25.1 31.2 6.2 6.2 3.4 127.1 95.4 0.00 0.0000000 33.2
2021-01-22 05:05:00 31.1 87.8 27.9 31.1 31.1 2.6 5.1 3.4 75.9 93.1 0.00 0.0000000 33.2
2021-01-22 05:10:00 31.3 87.9 28.1 28.1 31.3 3.3 4.2 2.7 128.3 84.0 0.00 0.0000000 33.2
2021-01-22 05:15:00 31.4 87.6 28.2 27.5 31.4 3.8 6.2 3.9 76.2 85.1 0.00 0.0000000 33.2
2021-01-22 05:20:00 31.5 87.2 28.1 26.7 31.5 4.7 5.6 3.9 98.4 87.5 0.00 0.0000000 33.2
2021-01-22 05:25:00 31.7 86.6 28.1 27.2 31.7 4.4 6.3 4.0 77.8 93.0 0.00 0.0000000 33.2
2021-01-22 05:30:00 31.7 87.0 28.2 31.7 31.7 2.8 5.6 3.5 82.8 88.6 0.00 0.0000000 33.2
2021-01-22 05:35:00 31.5 87.2 28.2 27.9 31.5 3.7 6.9 3.8 111.9 94.8 0.00 0.0000000 33.2
2021-01-22 05:40:00 31.4 87.6 28.1 31.4 31.4 1.5 4.7 2.7 78.7 76.9 0.00 0.0000000 33.2
2021-01-22 05:45:00 31.6 87.7 28.4 27.6 31.6 4.0 5.1 3.3 58.3 81.0 0.00 0.0000000 33.2
2021-01-22 05:50:00 31.6 87.4 28.3 31.6 31.6 2.2 5.3 3.5 55.4 78.9 0.00 0.0000000 33.2
2021-01-22 05:55:00 31.7 86.7 28.2 31.7 31.7 2.8 5.3 2.9 80.6 58.1 0.00 0.0000000 33.2
2021-01-22 06:00:00 32.0 86.2 28.4 28.5 32.0 3.7 6.3 3.6 92.4 76.9 0.00 0.0000000 33.2
2021-01-22 06:05:00 32.1 85.8 28.3 27.4 32.1 4.7 5.6 3.9 114.4 90.5 0.00 0.0000000 33.2
2021-01-22 06:10:00 32.1 85.5 28.3 27.6 32.1 4.6 6.7 4.3 99.2 80.7 0.00 0.0000000 33.2
2021-01-22 06:15:00 32.1 85.3 28.2 28.6 32.1 3.7 5.8 3.4 113.8 96.1 0.00 0.0000000 33.2
2021-01-22 06:20:00 32.1 85.1 28.2 32.1 32.1 3.0 6.2 3.6 55.3 79.1 0.00 0.0000000 33.2
2021-01-22 06:25:00 31.9 85.2 28.0 27.9 31.9 4.0 7.2 3.3 132.3 97.2 0.00 0.0000000 33.2
2021-01-22 06:30:00 31.7 85.6 27.8 27.8 31.7 3.8 5.8 3.2 117.6 85.7 0.00 0.0000000 33.2

Data is courtesy of the NM Climate Center. DO NOT USE IN LEGAL PROCEEDINGS.